sensor_id;sensor_type;location;lat;lon;timestamp;temperature;humidity
23540;DHT22;11947;50.810;4.394;2022-10-16T00:00:03;14.20;99.90
23540;DHT22;11947;50.810;4.394;2022-10-16T00:02:28;14.30;99.90
23540;DHT22;11947;50.810;4.394;2022-10-16T00:04:54;14.40;99.90
23540;DHT22;11947;50.810;4.394;2022-10-16T00:07:20;14.40;99.90
23540;DHT22;11947;50.810;4.394;2022-10-16T00:09:46;14.20;99.90
23540;DHT22;11947;50.810;4.394;2022-10-16T00:12:11;14.10;99.90
23540;DHT22;11947;50.810;4.394;2022-10-16T00:14:37;14.20;99.90
23540;DHT22;11947;50.810;4.394;2022-10-16T00:17:03;14.10;99.90
23540;DHT22;11947;50.810;4.394;2022-10-16T00:19:28;14.20;99.90
23540;DHT22;11947;50.810;4.394;2022-10-16T00:21:54;14.20;99.90
23540;DHT22;11947;50.810;4.394;2022-10-16T00:24:19;14.40;99.90
23540;DHT22;11947;50.810;4.394;2022-10-16T00:26:45;14.30;99.90
23540;DHT22;11947;50.810;4.394;2022-10-16T00:29:14;14.30;99.90
23540;DHT22;11947;50.810;4.394;2022-10-16T00:31:40;14.20;99.90
23540;DHT22;11947;50.810;4.394;2022-10-16T00:34:05;14.30;99.90
23540;DHT22;11947;50.810;4.394;2022-10-16T00:36:31;14.30;99.90
23540;DHT22;11947;50.810;4.394;2022-10-16T00:38:57;14.20;99.90
23540;DHT22;11947;50.810;4.394;2022-10-16T00:41:26;14.30;99.90
23540;DHT22;11947;50.810;4.394;2022-10-16T00:43:58;14.20;99.90
23540;DHT22;11947;50.810;4.394;2022-10-16T00:46:41;14.40;99.90
23540;DHT22;11947;50.810;4.394;2022-10-16T00:49:18;14.40;99.90
23540;DHT22;11947;50.810;4.394;2022-10-16T00:51:47;14.20;99.90
23540;DHT22;11947;50.810;4.394;2022-10-16T00:54:17;14.10;99.90
23540;DHT22;11947;50.810;4.394;2022-10-16T00:56:46;14.10;99.90
23540;DHT22;11947;50.810;4.394;2022-10-16T00:59:23;14.10;99.90
23540;DHT22;11947;50.810;4.394;2022-10-16T01:01:50;14.10;99.90
23540;DHT22;11947;50.810;4.394;2022-10-16T01:04:15;14.20;99.90
23540;DHT22;11947;50.810;4.394;2022-10-16T01:12:57;14.10;99.90
23540;DHT22;11947;50.810;4.394;2022-10-16T01:15:29;13.90;99.90
23540;DHT22;11947;50.810;4.394;2022-10-16T01:18:14;13.80;99.90
23540;DHT22;11947;50.810;4.394;2022-10-16T01:20:53;13.90;99.90
23540;DHT22;11947;50.810;4.394;2022-10-16T01:26:20;13.80;99.90
23540;DHT22;11947;50.810;4.394;2022-10-16T01:28:57;13.90;99.90
23540;DHT22;11947;50.810;4.394;2022-10-16T01:31:27;13.90;99.90
23540;DHT22;11947;50.810;4.394;2022-10-16T01:34:05;13.90;99.90
23540;DHT22;11947;50.810;4.394;2022-10-16T01:36:38;13.80;99.90
23540;DHT22;11947;50.810;4.394;2022-10-16T01:39:07;13.90;99.90
23540;DHT22;11947;50.810;4.394;2022-10-16T01:41:38;13.70;99.90
23540;DHT22;11947;50.810;4.394;2022-10-16T01:44:14;13.80;99.90
23540;DHT22;11947;50.810;4.394;2022-10-16T01:46:46;13.80;99.90
23540;DHT22;11947;50.810;4.394;2022-10-16T01:49:14;13.80;99.90
23540;DHT22;11947;50.810;4.394;2022-10-16T01:51:43;13.90;99.90
23540;DHT22;11947;50.810;4.394;2022-10-16T01:54:12;13.90;99.90
23540;DHT22;11947;50.810;4.394;2022-10-16T01:56:39;13.90;99.90
23540;DHT22;11947;50.810;4.394;2022-10-16T01:59:09;13.90;99.90
23540;DHT22;11947;50.810;4.394;2022-10-16T02:01:38;13.80;99.90
23540;DHT22;11947;50.810;4.394;2022-10-16T02:04:33;13.90;99.90
23540;DHT22;11947;50.810;4.394;2022-10-16T02:06:59;13.80;99.90
23540;DHT22;11947;50.810;4.394;2022-10-16T02:09:25;13.80;99.90
23540;DHT22;11947;50.810;4.394;2022-10-16T02:11:54;13.80;99.90
23540;DHT22;11947;50.810;4.394;2022-10-16T02:14:21;13.80;99.90
23540;DHT22;11947;50.810;4.394;2022-10-16T02:16:49;13.90;99.90
23540;DHT22;11947;50.810;4.394;2022-10-16T02:19:17;14.00;99.90
23540;DHT22;11947;50.810;4.394;2022-10-16T02:22:00;14.00;99.90
23540;DHT22;11947;50.810;4.394;2022-10-16T02:24:29;13.80;99.90
23540;DHT22;11947;50.810;4.394;2022-10-16T02:29:33;13.70;99.90
23540;DHT22;11947;50.810;4.394;2022-10-16T02:32:04;13.90;99.90
23540;DHT22;11947;50.810;4.394;2022-10-16T02:34:32;13.90;99.90
23540;DHT22;11947;50.810;4.394;2022-10-16T02:37:00;13.90;99.90
23540;DHT22;11947;50.810;4.394;2022-10-16T02:39:28;14.00;99.90
23540;DHT22;11947;50.810;4.394;2022-10-16T02:41:55;13.80;99.90
23540;DHT22;11947;50.810;4.394;2022-10-16T02:44:20;13.80;99.90
23540;DHT22;11947;50.810;4.394;2022-10-16T02:46:46;13.90;99.90
23540;DHT22;11947;50.810;4.394;2022-10-16T02:49:11;13.90;99.90
23540;DHT22;11947;50.810;4.394;2022-10-16T02:51:37;14.00;99.90
23540;DHT22;11947;50.810;4.394;2022-10-16T02:54:03;13.90;99.90
23540;DHT22;11947;50.810;4.394;2022-10-16T02:56:29;13.90;99.90
23540;DHT22;11947;50.810;4.394;2022-10-16T02:58:55;13.70;99.90
23540;DHT22;11947;50.810;4.394;2022-10-16T03:01:21;13.70;99.90
23540;DHT22;11947;50.810;4.394;2022-10-16T03:03:47;13.70;99.90
23540;DHT22;11947;50.810;4.394;2022-10-16T03:06:12;13.80;99.90
23540;DHT22;11947;50.810;4.394;2022-10-16T03:08:38;13.80;99.90
23540;DHT22;11947;50.810;4.394;2022-10-16T03:11:04;13.70;99.90
23540;DHT22;11947;50.810;4.394;2022-10-16T03:13:29;13.80;99.90
23540;DHT22;11947;50.810;4.394;2022-10-16T03:15:55;13.90;99.90
23540;DHT22;11947;50.810;4.394;2022-10-16T03:18:21;13.80;99.90
23540;DHT22;11947;50.810;4.394;2022-10-16T03:20:46;14.00;99.90
23540;DHT22;11947;50.810;4.394;2022-10-16T03:23:12;13.80;99.90
23540;DHT22;11947;50.810;4.394;2022-10-16T03:25:38;13.90;99.90
23540;DHT22;11947;50.810;4.394;2022-10-16T03:28:03;13.90;99.90
23540;DHT22;11947;50.810;4.394;2022-10-16T03:30:29;14.00;99.90
23540;DHT22;11947;50.810;4.394;2022-10-16T03:32:55;13.80;99.90
23540;DHT22;11947;50.810;4.394;2022-10-16T03:35:21;13.90;99.90
23540;DHT22;11947;50.810;4.394;2022-10-16T03:37:47;14.10;99.90
23540;DHT22;11947;50.810;4.394;2022-10-16T03:40:14;14.10;99.90
23540;DHT22;11947;50.810;4.394;2022-10-16T03:42:39;14.10;99.90
23540;DHT22;11947;50.810;4.394;2022-10-16T03:45:05;14.00;99.90
23540;DHT22;11947;50.810;4.394;2022-10-16T03:47:31;14.10;99.90
23540;DHT22;11947;50.810;4.394;2022-10-16T03:50:01;14.10;99.90
23540;DHT22;11947;50.810;4.394;2022-10-16T03:52:27;14.00;99.90
23540;DHT22;11947;50.810;4.394;2022-10-16T03:54:53;14.00;99.90
23540;DHT22;11947;50.810;4.394;2022-10-16T03:57:18;13.90;99.90
23540;DHT22;11947;50.810;4.394;2022-10-16T03:59:45;13.80;99.90
23540;DHT22;11947;50.810;4.394;2022-10-16T04:02:11;13.80;99.90
23540;DHT22;11947;50.810;4.394;2022-10-16T04:04:37;13.90;99.90
23540;DHT22;11947;50.810;4.394;2022-10-16T04:07:02;13.90;99.90
23540;DHT22;11947;50.810;4.394;2022-10-16T04:09:28;13.90;99.90
23540;DHT22;11947;50.810;4.394;2022-10-16T04:11:53;13.80;99.90
23540;DHT22;11947;50.810;4.394;2022-10-16T04:14:19;13.70;99.90
23540;DHT22;11947;50.810;4.394;2022-10-16T04:16:45;13.90;99.90
23540;DHT22;11947;50.810;4.394;2022-10-16T04:19:10;14.00;99.90
23540;DHT22;11947;50.810;4.394;2022-10-16T04:21:36;14.00;99.90
23540;DHT22;11947;50.810;4.394;2022-10-16T04:24:02;13.80;99.90
23540;DHT22;11947;50.810;4.394;2022-10-16T04:26:28;13.90;99.90
23540;DHT22;11947;50.810;4.394;2022-10-16T04:28:54;13.90;99.90
23540;DHT22;11947;50.810;4.394;2022-10-16T04:31:20;14.00;99.90
23540;DHT22;11947;50.810;4.394;2022-10-16T04:33:45;13.90;99.90
23540;DHT22;11947;50.810;4.394;2022-10-16T04:36:11;13.90;99.90
23540;DHT22;11947;50.810;4.394;2022-10-16T04:38:37;13.80;99.90
23540;DHT22;11947;50.810;4.394;2022-10-16T04:41:05;13.90;99.90
23540;DHT22;11947;50.810;4.394;2022-10-16T04:43:31;13.80;99.90
23540;DHT22;11947;50.810;4.394;2022-10-16T04:45:56;13.80;99.90
23540;DHT22;11947;50.810;4.394;2022-10-16T04:48:22;13.90;99.90
23540;DHT22;11947;50.810;4.394;2022-10-16T04:50:48;13.80;99.90
23540;DHT22;11947;50.810;4.394;2022-10-16T04:53:13;13.80;99.90
23540;DHT22;11947;50.810;4.394;2022-10-16T04:55:40;13.90;99.90
23540;DHT22;11947;50.810;4.394;2022-10-16T04:58:07;13.80;99.90
23540;DHT22;11947;50.810;4.394;2022-10-16T05:00:33;13.70;99.90
23540;DHT22;11947;50.810;4.394;2022-10-16T05:02:59;13.70;99.90
23540;DHT22;11947;50.810;4.394;2022-10-16T05:05:26;13.60;99.90
23540;DHT22;11947;50.810;4.394;2022-10-16T05:07:52;13.70;99.90
23540;DHT22;11947;50.810;4.394;2022-10-16T05:10:18;13.60;99.90
23540;DHT22;11947;50.810;4.394;2022-10-16T05:12:43;13.80;99.90
23540;DHT22;11947;50.810;4.394;2022-10-16T05:15:09;13.80;99.90
23540;DHT22;11947;50.810;4.394;2022-10-16T05:17:35;13.80;99.90
23540;DHT22;11947;50.810;4.394;2022-10-16T05:20:00;13.80;99.90
23540;DHT22;11947;50.810;4.394;2022-10-16T05:22:26;13.80;99.90
23540;DHT22;11947;50.810;4.394;2022-10-16T05:24:51;13.80;99.90
23540;DHT22;11947;50.810;4.394;2022-10-16T05:27:17;13.70;99.90
23540;DHT22;11947;50.810;4.394;2022-10-16T05:29:46;13.60;99.90
23540;DHT22;11947;50.810;4.394;2022-10-16T05:32:13;13.80;99.90
23540;DHT22;11947;50.810;4.394;2022-10-16T05:34:39;13.80;99.90
23540;DHT22;11947;50.810;4.394;2022-10-16T05:37:05;13.70;99.90
23540;DHT22;11947;50.810;4.394;2022-10-16T05:39:30;13.60;99.90
23540;DHT22;11947;50.810;4.394;2022-10-16T05:41:56;13.50;99.90
23540;DHT22;11947;50.810;4.394;2022-10-16T05:44:21;13.70;99.90
23540;DHT22;11947;50.810;4.394;2022-10-16T05:46:47;13.60;99.90
23540;DHT22;11947;50.810;4.394;2022-10-16T05:49:13;13.60;99.90
23540;DHT22;11947;50.810;4.394;2022-10-16T05:51:38;13.80;99.90
23540;DHT22;11947;50.810;4.394;2022-10-16T05:54:04;13.60;99.90
23540;DHT22;11947;50.810;4.394;2022-10-16T05:56:30;13.60;99.90
23540;DHT22;11947;50.810;4.394;2022-10-16T05:58:55;13.50;99.90
23540;DHT22;11947;50.810;4.394;2022-10-16T06:01:21;13.60;99.90
23540;DHT22;11947;50.810;4.394;2022-10-16T06:03:50;13.60;99.90
23540;DHT22;11947;50.810;4.394;2022-10-16T06:06:21;13.50;99.90
23540;DHT22;11947;50.810;4.394;2022-10-16T06:08:47;13.50;99.90
23540;DHT22;11947;50.810;4.394;2022-10-16T06:11:16;13.40;99.90
23540;DHT22;11947;50.810;4.394;2022-10-16T06:13:42;13.50;99.90
23540;DHT22;11947;50.810;4.394;2022-10-16T06:16:09;13.50;99.90
23540;DHT22;11947;50.810;4.394;2022-10-16T06:18:35;13.50;99.90
23540;DHT22;11947;50.810;4.394;2022-10-16T06:21:08;13.60;99.90
23540;DHT22;11947;50.810;4.394;2022-10-16T06:23:34;13.70;99.90
23540;DHT22;11947;50.810;4.394;2022-10-16T06:26:11;13.60;99.90
23540;DHT22;11947;50.810;4.394;2022-10-16T06:28:38;13.60;99.90
23540;DHT22;11947;50.810;4.394;2022-10-16T06:31:05;13.70;99.90
23540;DHT22;11947;50.810;4.394;2022-10-16T06:33:32;13.70;99.90
23540;DHT22;11947;50.810;4.394;2022-10-16T06:36:25;13.60;99.90
23540;DHT22;11947;50.810;4.394;2022-10-16T06:38:50;13.50;99.90
23540;DHT22;11947;50.810;4.394;2022-10-16T06:41:19;13.60;99.90
23540;DHT22;11947;50.810;4.394;2022-10-16T06:43:45;13.60;99.90
23540;DHT22;11947;50.810;4.394;2022-10-16T06:46:12;13.60;99.90
23540;DHT22;11947;50.810;4.394;2022-10-16T06:48:38;13.80;99.90
23540;DHT22;11947;50.810;4.394;2022-10-16T06:51:09;13.80;99.90
23540;DHT22;11947;50.810;4.394;2022-10-16T06:53:36;13.90;99.90
23540;DHT22;11947;50.810;4.394;2022-10-16T06:58:43;14.10;99.90
23540;DHT22;11947;50.810;4.394;2022-10-16T07:01:10;14.30;99.90
23540;DHT22;11947;50.810;4.394;2022-10-16T07:03:37;14.20;99.90
23540;DHT22;11947;50.810;4.394;2022-10-16T07:06:04;14.30;99.90
23540;DHT22;11947;50.810;4.394;2022-10-16T07:08:35;14.30;99.90
23540;DHT22;11947;50.810;4.394;2022-10-16T07:11:03;14.40;99.90
23540;DHT22;11947;50.810;4.394;2022-10-16T07:13:29;14.60;99.90
23540;DHT22;11947;50.810;4.394;2022-10-16T07:15:55;14.60;99.90
23540;DHT22;11947;50.810;4.394;2022-10-16T07:18:21;14.60;99.90
23540;DHT22;11947;50.810;4.394;2022-10-16T07:20:48;14.70;99.90
23540;DHT22;11947;50.810;4.394;2022-10-16T07:23:13;14.70;99.90
23540;DHT22;11947;50.810;4.394;2022-10-16T07:25:41;14.70;99.90
23540;DHT22;11947;50.810;4.394;2022-10-16T07:28:06;14.70;99.90
23540;DHT22;11947;50.810;4.394;2022-10-16T07:30:35;14.90;99.90
23540;DHT22;11947;50.810;4.394;2022-10-16T07:33:01;14.80;99.90
23540;DHT22;11947;50.810;4.394;2022-10-16T07:35:27;14.80;99.90
23540;DHT22;11947;50.810;4.394;2022-10-16T07:37:52;14.90;99.90
23540;DHT22;11947;50.810;4.394;2022-10-16T07:40:18;14.90;99.90
23540;DHT22;11947;50.810;4.394;2022-10-16T07:42:45;15.00;99.90
23540;DHT22;11947;50.810;4.394;2022-10-16T07:45:10;15.00;99.90
23540;DHT22;11947;50.810;4.394;2022-10-16T07:47:36;15.20;99.90
23540;DHT22;11947;50.810;4.394;2022-10-16T07:50:01;15.10;99.90
23540;DHT22;11947;50.810;4.394;2022-10-16T07:52:27;15.20;99.90
23540;DHT22;11947;50.810;4.394;2022-10-16T07:54:53;15.20;99.90
23540;DHT22;11947;50.810;4.394;2022-10-16T07:57:18;15.30;99.90
23540;DHT22;11947;50.810;4.394;2022-10-16T07:59:45;15.40;99.90
23540;DHT22;11947;50.810;4.394;2022-10-16T08:02:11;15.50;99.90
23540;DHT22;11947;50.810;4.394;2022-10-16T08:04:37;15.40;99.90
23540;DHT22;11947;50.810;4.394;2022-10-16T08:07:02;15.50;99.90
23540;DHT22;11947;50.810;4.394;2022-10-16T08:09:28;15.60;99.90
23540;DHT22;11947;50.810;4.394;2022-10-16T08:11:54;15.50;99.90
23540;DHT22;11947;50.810;4.394;2022-10-16T08:14:19;15.70;99.90
23540;DHT22;11947;50.810;4.394;2022-10-16T08:16:45;15.70;99.90
23540;DHT22;11947;50.810;4.394;2022-10-16T08:19:10;15.60;99.90
23540;DHT22;11947;50.810;4.394;2022-10-16T08:21:36;15.80;99.90
23540;DHT22;11947;50.810;4.394;2022-10-16T08:24:01;15.90;99.90
23540;DHT22;11947;50.810;4.394;2022-10-16T08:26:27;15.90;99.90
23540;DHT22;11947;50.810;4.394;2022-10-16T08:28:54;16.00;99.90
23540;DHT22;11947;50.810;4.394;2022-10-16T08:31:20;16.00;99.90
23540;DHT22;11947;50.810;4.394;2022-10-16T08:33:46;16.10;99.90
23540;DHT22;11947;50.810;4.394;2022-10-16T08:36:14;16.10;99.90
23540;DHT22;11947;50.810;4.394;2022-10-16T08:38:39;16.20;99.90
23540;DHT22;11947;50.810;4.394;2022-10-16T08:46:56;16.50;99.90
23540;DHT22;11947;50.810;4.394;2022-10-16T08:49:26;16.60;99.90
23540;DHT22;11947;50.810;4.394;2022-10-16T08:51:52;16.70;99.90
23540;DHT22;11947;50.810;4.394;2022-10-16T08:54:31;16.70;99.90
23540;DHT22;11947;50.810;4.394;2022-10-16T08:57:14;16.90;99.90
23540;DHT22;11947;50.810;4.394;2022-10-16T08:59:41;17.00;99.90
23540;DHT22;11947;50.810;4.394;2022-10-16T09:02:31;17.20;99.90
23540;DHT22;11947;50.810;4.394;2022-10-16T09:08:09;17.40;99.90
23540;DHT22;11947;50.810;4.394;2022-10-16T09:11:03;17.50;99.90
23540;DHT22;11947;50.810;4.394;2022-10-16T09:13:43;17.50;99.90
23540;DHT22;11947;50.810;4.394;2022-10-16T09:16:24;17.60;99.90
23540;DHT22;11947;50.810;4.394;2022-10-16T09:19:14;17.60;99.90
23540;DHT22;11947;50.810;4.394;2022-10-16T09:21:44;17.70;99.90
23540;DHT22;11947;50.810;4.394;2022-10-16T09:24:14;18.00;99.90
23540;DHT22;11947;50.810;4.394;2022-10-16T09:26:41;18.00;99.90
23540;DHT22;11947;50.810;4.394;2022-10-16T09:29:10;18.20;99.90
23540;DHT22;11947;50.810;4.394;2022-10-16T09:31:36;18.20;99.90
23540;DHT22;11947;50.810;4.394;2022-10-16T09:34:03;18.40;99.90
23540;DHT22;11947;50.810;4.394;2022-10-16T09:36:44;18.30;99.90
23540;DHT22;11947;50.810;4.394;2022-10-16T09:39:11;18.30;99.90
23540;DHT22;11947;50.810;4.394;2022-10-16T09:41:40;18.20;99.90
23540;DHT22;11947;50.810;4.394;2022-10-16T09:44:22;18.30;99.90
23540;DHT22;11947;50.810;4.394;2022-10-16T09:47:14;18.50;99.90
23540;DHT22;11947;50.810;4.394;2022-10-16T09:49:54;18.50;99.90
23540;DHT22;11947;50.810;4.394;2022-10-16T09:52:22;18.60;99.90
23540;DHT22;11947;50.810;4.394;2022-10-16T09:54:59;18.50;99.90
23540;DHT22;11947;50.810;4.394;2022-10-16T09:57:25;18.70;99.90
23540;DHT22;11947;50.810;4.394;2022-10-16T09:59:53;18.80;99.90
23540;DHT22;11947;50.810;4.394;2022-10-16T10:02:45;18.90;99.90
23540;DHT22;11947;50.810;4.394;2022-10-16T10:05:25;18.90;99.90
23540;DHT22;11947;50.810;4.394;2022-10-16T10:08:03;19.10;99.90
23540;DHT22;11947;50.810;4.394;2022-10-16T10:10:39;19.10;99.90
23540;DHT22;11947;50.810;4.394;2022-10-16T10:13:24;18.90;99.90
23540;DHT22;11947;50.810;4.394;2022-10-16T10:15:50;19.00;99.90
23540;DHT22;11947;50.810;4.394;2022-10-16T10:18:23;18.90;99.90
23540;DHT22;11947;50.810;4.394;2022-10-16T10:21:00;19.00;99.90
23540;DHT22;11947;50.810;4.394;2022-10-16T10:23:27;19.10;99.90
23540;DHT22;11947;50.810;4.394;2022-10-16T10:37:08;20.30;99.90
23540;DHT22;11947;50.810;4.394;2022-10-16T10:39:49;20.70;99.90
23540;DHT22;11947;50.810;4.394;2022-10-16T10:42:53;21.10;99.90
23540;DHT22;11947;50.810;4.394;2022-10-16T10:45:42;21.60;99.90
23540;DHT22;11947;50.810;4.394;2022-10-16T10:48:44;22.20;99.90
23540;DHT22;11947;50.810;4.394;2022-10-16T10:57:02;21.80;99.90
23540;DHT22;11947;50.810;4.394;2022-10-16T11:07:47;23.30;99.90
23540;DHT22;11947;50.810;4.394;2022-10-16T11:11:10;23.70;99.90
23540;DHT22;11947;50.810;4.394;2022-10-16T11:16:18;26.50;99.90
23540;DHT22;11947;50.810;4.394;2022-10-16T11:21:47;28.50;99.90
23540;DHT22;11947;50.810;4.394;2022-10-16T11:24:28;30.00;99.90
23540;DHT22;11947;50.810;4.394;2022-10-16T11:27:00;31.80;99.90
23540;DHT22;11947;50.810;4.394;2022-10-16T11:29:32;33.20;99.90
23540;DHT22;11947;50.810;4.394;2022-10-16T11:32:21;33.30;98.30
23540;DHT22;11947;50.810;4.394;2022-10-16T11:34:57;34.00;96.60
23540;DHT22;11947;50.810;4.394;2022-10-16T11:37:50;34.50;93.40
23540;DHT22;11947;50.810;4.394;2022-10-16T11:40:33;34.80;93.10
23540;DHT22;11947;50.810;4.394;2022-10-16T11:43:27;35.10;91.50
23540;DHT22;11947;50.810;4.394;2022-10-16T11:46:04;34.20;91.70
23540;DHT22;11947;50.810;4.394;2022-10-16T11:48:49;34.20;91.10
23540;DHT22;11947;50.810;4.394;2022-10-16T11:54:02;31.00;92.90
23540;DHT22;11947;50.810;4.394;2022-10-16T11:56:32;29.20;95.00
23540;DHT22;11947;50.810;4.394;2022-10-16T11:59:10;28.60;98.40
23540;DHT22;11947;50.810;4.394;2022-10-16T12:01:47;28.00;97.20
23540;DHT22;11947;50.810;4.394;2022-10-16T12:04:42;27.20;97.60
23540;DHT22;11947;50.810;4.394;2022-10-16T12:07:24;26.30;99.70
23540;DHT22;11947;50.810;4.394;2022-10-16T12:09:52;26.10;99.90
23540;DHT22;11947;50.810;4.394;2022-10-16T12:12:41;26.10;99.90
23540;DHT22;11947;50.810;4.394;2022-10-16T12:15:28;25.90;99.90
23540;DHT22;11947;50.810;4.394;2022-10-16T12:17:55;25.30;99.90
23540;DHT22;11947;50.810;4.394;2022-10-16T12:23:01;23.90;99.90
23540;DHT22;11947;50.810;4.394;2022-10-16T12:25:37;23.10;99.90
23540;DHT22;11947;50.810;4.394;2022-10-16T12:28:22;23.00;99.90
23540;DHT22;11947;50.810;4.394;2022-10-16T12:31:00;23.30;99.90
23540;DHT22;11947;50.810;4.394;2022-10-16T12:33:28;24.60;99.90
23540;DHT22;11947;50.810;4.394;2022-10-16T12:35:54;25.00;99.90
23540;DHT22;11947;50.810;4.394;2022-10-16T12:41:29;25.30;99.90
23540;DHT22;11947;50.810;4.394;2022-10-16T12:43:55;24.70;99.90
23540;DHT22;11947;50.810;4.394;2022-10-16T12:46:34;24.00;99.90
23540;DHT22;11947;50.810;4.394;2022-10-16T12:51:39;23.70;99.90
23540;DHT22;11947;50.810;4.394;2022-10-16T12:54:18;23.60;99.90
23540;DHT22;11947;50.810;4.394;2022-10-16T13:05:26;22.50;99.90
23540;DHT22;11947;50.810;4.394;2022-10-16T13:24:07;22.30;99.90
23540;DHT22;11947;50.810;4.394;2022-10-16T13:47:29;22.10;99.90
23540;DHT22;11947;50.810;4.394;2022-10-16T13:52:49;21.30;99.90
23540;DHT22;11947;50.810;4.394;2022-10-16T13:55:17;21.00;99.90
23540;DHT22;11947;50.810;4.394;2022-10-16T13:57:45;20.90;99.90
23540;DHT22;11947;50.810;4.394;2022-10-16T14:00:23;20.70;99.90
23540;DHT22;11947;50.810;4.394;2022-10-16T14:03:01;20.80;99.90
23540;DHT22;11947;50.810;4.394;2022-10-16T14:05:36;20.90;99.90
23540;DHT22;11947;50.810;4.394;2022-10-16T14:08:06;21.00;99.90
23540;DHT22;11947;50.810;4.394;2022-10-16T14:10:35;21.00;99.90
23540;DHT22;11947;50.810;4.394;2022-10-16T14:13:12;20.80;99.90
23540;DHT22;11947;50.810;4.394;2022-10-16T14:15:40;20.70;99.90
23540;DHT22;11947;50.810;4.394;2022-10-16T14:18:05;20.40;99.90
23540;DHT22;11947;50.810;4.394;2022-10-16T14:20:33;20.10;99.90
23540;DHT22;11947;50.810;4.394;2022-10-16T14:25:51;19.90;99.90
23540;DHT22;11947;50.810;4.394;2022-10-16T14:28:20;19.90;99.90
23540;DHT22;11947;50.810;4.394;2022-10-16T14:30:57;19.90;99.90
23540;DHT22;11947;50.810;4.394;2022-10-16T14:36:13;20.10;99.90
23540;DHT22;11947;50.810;4.394;2022-10-16T14:39:05;20.10;99.90
23540;DHT22;11947;50.810;4.394;2022-10-16T14:41:31;20.20;99.90
23540;DHT22;11947;50.810;4.394;2022-10-16T14:44:04;20.30;99.90
23540;DHT22;11947;50.810;4.394;2022-10-16T14:46:34;20.40;99.90
23540;DHT22;11947;50.810;4.394;2022-10-16T14:49:13;20.30;99.90
23540;DHT22;11947;50.810;4.394;2022-10-16T14:51:42;20.30;99.90
23540;DHT22;11947;50.810;4.394;2022-10-16T14:54:19;20.00;99.90
23540;DHT22;11947;50.810;4.394;2022-10-16T14:56:58;19.70;99.90
23540;DHT22;11947;50.810;4.394;2022-10-16T14:59:28;19.50;99.90
23540;DHT22;11947;50.810;4.394;2022-10-16T15:01:55;19.60;99.90
23540;DHT22;11947;50.810;4.394;2022-10-16T15:04:21;19.90;99.90
23540;DHT22;11947;50.810;4.394;2022-10-16T15:06:47;19.80;99.90
23540;DHT22;11947;50.810;4.394;2022-10-16T15:09:15;19.80;99.90
23540;DHT22;11947;50.810;4.394;2022-10-16T15:11:42;19.80;99.90
23540;DHT22;11947;50.810;4.394;2022-10-16T15:14:12;19.90;99.90
23540;DHT22;11947;50.810;4.394;2022-10-16T15:16:38;19.80;99.90
23540;DHT22;11947;50.810;4.394;2022-10-16T15:19:04;19.80;99.90
23540;DHT22;11947;50.810;4.394;2022-10-16T15:21:32;19.80;99.90
23540;DHT22;11947;50.810;4.394;2022-10-16T15:23:59;19.70;99.90
23540;DHT22;11947;50.810;4.394;2022-10-16T15:26:29;19.80;99.90
23540;DHT22;11947;50.810;4.394;2022-10-16T15:28:58;19.90;99.90
23540;DHT22;11947;50.810;4.394;2022-10-16T15:31:27;19.70;99.90
23540;DHT22;11947;50.810;4.394;2022-10-16T15:33:53;19.60;99.90
23540;DHT22;11947;50.810;4.394;2022-10-16T15:36:32;19.50;99.90
23540;DHT22;11947;50.810;4.394;2022-10-16T15:39:05;19.20;99.90
23540;DHT22;11947;50.810;4.394;2022-10-16T15:41:34;19.00;99.90
23540;DHT22;11947;50.810;4.394;2022-10-16T15:43:59;19.00;99.90
23540;DHT22;11947;50.810;4.394;2022-10-16T15:46:25;18.90;99.90
23540;DHT22;11947;50.810;4.394;2022-10-16T15:48:56;19.00;99.90
23540;DHT22;11947;50.810;4.394;2022-10-16T15:51:28;19.10;99.90
23540;DHT22;11947;50.810;4.394;2022-10-16T15:53:56;19.00;99.90
23540;DHT22;11947;50.810;4.394;2022-10-16T15:56:22;18.80;99.90
23540;DHT22;11947;50.810;4.394;2022-10-16T15:58:51;18.90;99.90
23540;DHT22;11947;50.810;4.394;2022-10-16T16:01:16;18.90;99.90
23540;DHT22;11947;50.810;4.394;2022-10-16T16:03:42;18.70;99.90
23540;DHT22;11947;50.810;4.394;2022-10-16T16:06:11;18.60;99.90
23540;DHT22;11947;50.810;4.394;2022-10-16T16:08:38;18.70;99.90
23540;DHT22;11947;50.810;4.394;2022-10-16T16:11:08;18.70;99.90
23540;DHT22;11947;50.810;4.394;2022-10-16T16:13:34;18.60;99.90
23540;DHT22;11947;50.810;4.394;2022-10-16T16:16:08;18.60;99.90
23540;DHT22;11947;50.810;4.394;2022-10-16T16:18:35;18.60;99.90
23540;DHT22;11947;50.810;4.394;2022-10-16T16:21:01;18.50;99.90
23540;DHT22;11947;50.810;4.394;2022-10-16T16:23:27;18.40;99.90
23540;DHT22;11947;50.810;4.394;2022-10-16T16:26:03;18.50;99.90
23540;DHT22;11947;50.810;4.394;2022-10-16T16:28:32;18.40;99.90
23540;DHT22;11947;50.810;4.394;2022-10-16T16:30:57;18.20;99.90
23540;DHT22;11947;50.810;4.394;2022-10-16T16:33:23;18.30;99.90
23540;DHT22;11947;50.810;4.394;2022-10-16T16:35:57;18.20;99.90
23540;DHT22;11947;50.810;4.394;2022-10-16T16:38:22;18.20;99.90
23540;DHT22;11947;50.810;4.394;2022-10-16T16:40:48;18.30;99.90
23540;DHT22;11947;50.810;4.394;2022-10-16T16:43:14;18.30;99.90
23540;DHT22;11947;50.810;4.394;2022-10-16T16:45:39;18.30;99.90
23540;DHT22;11947;50.810;4.394;2022-10-16T16:48:05;18.20;99.90
23540;DHT22;11947;50.810;4.394;2022-10-16T16:50:36;18.20;99.90
23540;DHT22;11947;50.810;4.394;2022-10-16T16:53:03;18.20;99.90
23540;DHT22;11947;50.810;4.394;2022-10-16T16:55:31;18.20;99.90
23540;DHT22;11947;50.810;4.394;2022-10-16T16:58:00;18.10;99.90
23540;DHT22;11947;50.810;4.394;2022-10-16T17:05:31;18.00;99.90
23540;DHT22;11947;50.810;4.394;2022-10-16T17:07:56;18.00;99.90
23540;DHT22;11947;50.810;4.394;2022-10-16T17:10:22;18.00;99.90
23540;DHT22;11947;50.810;4.394;2022-10-16T17:12:50;17.90;99.90
23540;DHT22;11947;50.810;4.394;2022-10-16T17:15:15;17.80;99.90
23540;DHT22;11947;50.810;4.394;2022-10-16T17:17:42;17.50;99.90
23540;DHT22;11947;50.810;4.394;2022-10-16T17:20:35;17.50;99.90
23540;DHT22;11947;50.810;4.394;2022-10-16T17:23:01;17.50;99.90
23540;DHT22;11947;50.810;4.394;2022-10-16T17:25:27;17.40;99.90
23540;DHT22;11947;50.810;4.394;2022-10-16T17:27:52;17.10;99.90
23540;DHT22;11947;50.810;4.394;2022-10-16T17:30:20;17.00;99.90
23540;DHT22;11947;50.810;4.394;2022-10-16T17:32:53;17.00;99.90
23540;DHT22;11947;50.810;4.394;2022-10-16T17:35:20;16.90;99.90
23540;DHT22;11947;50.810;4.394;2022-10-16T17:37:51;16.90;99.90
23540;DHT22;11947;50.810;4.394;2022-10-16T17:40:20;17.00;99.90
23540;DHT22;11947;50.810;4.394;2022-10-16T17:43:01;17.00;99.90
23540;DHT22;11947;50.810;4.394;2022-10-16T17:45:29;17.00;99.90
23540;DHT22;11947;50.810;4.394;2022-10-16T17:48:21;16.90;99.90
23540;DHT22;11947;50.810;4.394;2022-10-16T17:50:56;16.90;99.90